sensor_id;sensor_type;location;lat;lon;timestamp;noise_LAeq;noise_LA_min;noise_LA_max;noise_LA01;noise_LA95
60503;Laerm;51448;51.660;5.824;2022-09-29T00:01:09;49.73;29.44;61.93;;
60503;Laerm;51448;51.660;5.824;2022-09-29T00:03:36;49.29;29.63;60.52;;
60503;Laerm;51448;51.660;5.824;2022-09-29T00:06:12;48.61;29.42;60.47;;
60503;Laerm;51448;51.660;5.824;2022-09-29T00:08:41;49.38;29.48;60.55;;
60503;Laerm;51448;51.660;5.824;2022-09-29T00:11:13;49.20;29.77;60.68;;
60503;Laerm;51448;51.660;5.824;2022-09-29T00:13:42;49.25;29.41;60.91;;
60503;Laerm;51448;51.660;5.824;2022-09-29T00:16:12;49.17;29.33;60.60;;
60503;Laerm;51448;51.660;5.824;2022-09-29T00:18:40;49.42;29.66;60.60;;
60503;Laerm;51448;51.660;5.824;2022-09-29T00:21:16;49.22;29.75;60.58;;
60503;Laerm;51448;51.660;5.824;2022-09-29T00:23:47;48.96;29.74;60.61;;
60503;Laerm;51448;51.660;5.824;2022-09-29T00:26:21;48.96;29.96;60.61;;
60503;Laerm;51448;51.660;5.824;2022-09-29T00:28:54;49.12;29.90;60.42;;
60503;Laerm;51448;51.660;5.824;2022-09-29T00:31:27;48.20;29.84;58.40;;
60503;Laerm;51448;51.660;5.824;2022-09-29T00:33:55;48.15;29.53;58.26;;
60503;Laerm;51448;51.660;5.824;2022-09-29T00:36:24;49.33;29.73;60.75;;
60503;Laerm;51448;51.660;5.824;2022-09-29T00:38:56;49.22;29.84;60.64;;
60503;Laerm;51448;51.660;5.824;2022-09-29T00:41:34;49.94;29.86;61.09;;
60503;Laerm;51448;51.660;5.824;2022-09-29T00:49:43;48.92;29.87;60.78;;
60503;Laerm;51448;51.660;5.824;2022-09-29T00:52:28;48.82;29.44;61.40;;
60503;Laerm;51448;51.660;5.824;2022-09-29T00:55:25;49.01;29.59;61.16;;
60503;Laerm;51448;51.660;5.824;2022-09-29T00:58:05;48.82;29.42;60.86;;
60503;Laerm;51448;51.660;5.824;2022-09-29T01:00:35;49.58;29.80;61.48;;
60503;Laerm;51448;51.660;5.824;2022-09-29T01:03:09;49.79;30.20;60.96;;
60503;Laerm;51448;51.660;5.824;2022-09-29T01:05:47;49.53;29.57;60.62;;
60503;Laerm;51448;51.660;5.824;2022-09-29T01:08:24;49.75;29.63;60.92;;
60503;Laerm;51448;51.660;5.824;2022-09-29T01:10:56;49.83;29.66;61.00;;
60503;Laerm;51448;51.660;5.824;2022-09-29T01:13:24;49.17;29.84;61.40;;
60503;Laerm;51448;51.660;5.824;2022-09-29T01:15:51;51.00;30.05;61.34;;
60503;Laerm;51448;51.660;5.824;2022-09-29T01:18:19;49.98;30.73;60.97;;
60503;Laerm;51448;51.660;5.824;2022-09-29T01:21:00;49.98;29.66;61.45;;
60503;Laerm;51448;51.660;5.824;2022-09-29T01:24:11;48.68;29.68;62.02;;
60503;Laerm;51448;51.660;5.824;2022-09-29T01:27:04;48.38;29.38;59.68;;
60503;Laerm;51448;51.660;5.824;2022-09-29T01:33:22;49.32;30.07;65.15;;
60503;Laerm;51448;51.660;5.824;2022-09-29T01:36:11;49.11;29.85;61.11;;
60503;Laerm;51448;51.660;5.824;2022-09-29T01:41:43;49.03;29.87;60.75;;
60503;Laerm;51448;51.660;5.824;2022-09-29T01:47:00;49.74;30.06;60.36;;
60503;Laerm;51448;51.660;5.824;2022-09-29T01:49:36;49.15;29.75;59.92;;
60503;Laerm;51448;51.660;5.824;2022-09-29T01:52:20;50.01;29.44;61.28;;
60503;Laerm;51448;51.660;5.824;2022-09-29T01:57:32;51.19;29.76;62.68;;
60503;Laerm;51448;51.660;5.824;2022-09-29T02:00:08;49.57;30.13;60.64;;
60503;Laerm;51448;51.660;5.824;2022-09-29T02:02:53;49.54;29.90;60.42;;
60503;Laerm;51448;51.660;5.824;2022-09-29T02:05:30;50.20;30.21;60.87;;
60503;Laerm;51448;51.660;5.824;2022-09-29T02:10:57;49.38;30.13;60.54;;
60503;Laerm;51448;51.660;5.824;2022-09-29T02:13:32;49.50;29.76;60.52;;
60503;Laerm;51448;51.660;5.824;2022-09-29T02:16:04;50.24;30.02;60.91;;
60503;Laerm;51448;51.660;5.824;2022-09-29T02:18:50;49.79;30.57;60.52;;
60503;Laerm;51448;51.660;5.824;2022-09-29T02:21:26;50.58;30.72;61.96;;
60503;Laerm;51448;51.660;5.824;2022-09-29T02:23:54;50.20;30.24;60.66;;
60503;Laerm;51448;51.660;5.824;2022-09-29T02:26:28;49.77;30.18;60.66;;
60503;Laerm;51448;51.660;5.824;2022-09-29T02:28:56;50.08;30.14;60.58;;
60503;Laerm;51448;51.660;5.824;2022-09-29T02:31:24;50.50;29.85;60.91;;
60503;Laerm;51448;51.660;5.824;2022-09-29T02:33:52;50.15;30.58;60.65;;
60503;Laerm;51448;51.660;5.824;2022-09-29T02:36:57;49.77;30.70;61.06;;
60503;Laerm;51448;51.660;5.824;2022-09-29T02:40:15;49.35;30.10;60.42;;
60503;Laerm;51448;51.660;5.824;2022-09-29T02:43:11;49.04;30.39;60.42;;
60503;Laerm;51448;51.660;5.824;2022-09-29T02:51:50;50.70;30.17;61.24;;
60503;Laerm;51448;51.660;5.824;2022-09-29T02:54:47;49.86;29.93;60.76;;
60503;Laerm;51448;51.660;5.824;2022-09-29T02:57:30;49.80;29.88;60.73;;
60503;Laerm;51448;51.660;5.824;2022-09-29T03:00:14;50.49;31.63;60.83;;
60503;Laerm;51448;51.660;5.824;2022-09-29T03:02:43;50.05;29.86;60.73;;
60503;Laerm;51448;51.660;5.824;2022-09-29T03:05:14;50.51;29.99;60.97;;
60503;Laerm;51448;51.660;5.824;2022-09-29T03:07:43;50.59;30.89;61.17;;
60503;Laerm;51448;51.660;5.824;2022-09-29T03:10:14;51.01;30.41;61.26;;
60503;Laerm;51448;51.660;5.824;2022-09-29T03:12:41;50.52;31.00;61.02;;
60503;Laerm;51448;51.660;5.824;2022-09-29T03:15:09;50.35;30.71;60.52;;
60503;Laerm;51448;51.660;5.824;2022-09-29T03:17:39;50.04;30.89;60.58;;
60503;Laerm;51448;51.660;5.824;2022-09-29T03:20:07;50.32;31.29;60.59;;
60503;Laerm;51448;51.660;5.824;2022-09-29T03:22:35;50.22;31.46;60.59;;
60503;Laerm;51448;51.660;5.824;2022-09-29T03:25:04;50.42;31.25;60.74;;
60503;Laerm;51448;51.660;5.824;2022-09-29T03:27:32;50.58;31.61;62.13;;
60503;Laerm;51448;51.660;5.824;2022-09-29T03:30:00;50.98;31.67;60.91;;
60503;Laerm;51448;51.660;5.824;2022-09-29T03:32:28;50.79;31.72;62.77;;
60503;Laerm;51448;51.660;5.824;2022-09-29T03:34:56;52.50;32.94;64.16;;
60503;Laerm;51448;51.660;5.824;2022-09-29T03:37:24;54.09;33.98;63.65;;
60503;Laerm;51448;51.660;5.824;2022-09-29T03:39:51;52.52;33.44;64.37;;
60503;Laerm;51448;51.660;5.824;2022-09-29T03:42:18;50.70;31.47;61.63;;
60503;Laerm;51448;51.660;5.824;2022-09-29T03:44:48;50.51;31.39;62.26;;
60503;Laerm;51448;51.660;5.824;2022-09-29T03:47:16;51.63;32.47;61.16;;
60503;Laerm;51448;51.660;5.824;2022-09-29T03:49:43;50.09;31.41;60.49;;
60503;Laerm;51448;51.660;5.824;2022-09-29T03:52:11;51.11;31.98;61.82;;
60503;Laerm;51448;51.660;5.824;2022-09-29T03:54:38;51.15;31.78;61.16;;
60503;Laerm;51448;51.660;5.824;2022-09-29T03:57:06;51.21;32.29;61.25;;
60503;Laerm;51448;51.660;5.824;2022-09-29T03:59:33;51.52;31.89;61.30;;
60503;Laerm;51448;51.660;5.824;2022-09-29T04:02:00;50.97;31.76;61.28;;
60503;Laerm;51448;51.660;5.824;2022-09-29T04:04:29;50.84;32.63;61.17;;
60503;Laerm;51448;51.660;5.824;2022-09-29T04:06:56;51.79;32.39;61.30;;
60503;Laerm;51448;51.660;5.824;2022-09-29T04:09:23;50.86;33.21;60.98;;
60503;Laerm;51448;51.660;5.824;2022-09-29T04:11:51;52.41;32.88;64.41;;
60503;Laerm;51448;51.660;5.824;2022-09-29T04:14:18;52.72;34.29;62.64;;
60503;Laerm;51448;51.660;5.824;2022-09-29T04:16:46;52.33;34.94;61.04;;
60503;Laerm;51448;51.660;5.824;2022-09-29T04:19:14;51.70;34.97;61.74;;
60503;Laerm;51448;51.660;5.824;2022-09-29T04:21:41;52.27;32.82;61.37;;
60503;Laerm;51448;51.660;5.824;2022-09-29T04:24:09;52.22;34.87;61.62;;
60503;Laerm;51448;51.660;5.824;2022-09-29T04:26:36;51.90;35.24;62.45;;
60503;Laerm;51448;51.660;5.824;2022-09-29T04:29:04;51.08;33.17;61.29;;
60503;Laerm;51448;51.660;5.824;2022-09-29T04:31:31;52.60;33.97;63.26;;
60503;Laerm;51448;51.660;5.824;2022-09-29T04:33:59;54.29;35.61;64.31;;
60503;Laerm;51448;51.660;5.824;2022-09-29T04:36:26;52.53;35.87;61.87;;
60503;Laerm;51448;51.660;5.824;2022-09-29T04:38:54;54.27;35.47;62.66;;
60503;Laerm;51448;51.660;5.824;2022-09-29T04:41:21;53.84;35.50;62.10;;
60503;Laerm;51448;51.660;5.824;2022-09-29T04:43:48;52.78;34.91;63.48;;
60503;Laerm;51448;51.660;5.824;2022-09-29T04:46:16;52.63;36.60;65.21;;
60503;Laerm;51448;51.660;5.824;2022-09-29T04:48:43;53.01;36.93;66.45;;
60503;Laerm;51448;51.660;5.824;2022-09-29T04:51:11;53.35;35.86;63.65;;
60503;Laerm;51448;51.660;5.824;2022-09-29T04:53:38;53.13;36.23;62.83;;
60503;Laerm;51448;51.660;5.824;2022-09-29T04:56:07;52.31;35.82;61.30;;
60503;Laerm;51448;51.660;5.824;2022-09-29T04:58:35;51.91;34.16;61.28;;
60503;Laerm;51448;51.660;5.824;2022-09-29T05:01:06;52.61;35.40;68.33;;
60503;Laerm;51448;51.660;5.824;2022-09-29T05:03:37;53.86;36.74;62.59;;
60503;Laerm;51448;51.660;5.824;2022-09-29T05:06:09;55.87;36.42;69.79;;
60503;Laerm;51448;51.660;5.824;2022-09-29T05:08:36;53.68;35.67;62.95;;
60503;Laerm;51448;51.660;5.824;2022-09-29T05:11:06;54.68;35.54;74.43;;
60503;Laerm;51448;51.660;5.824;2022-09-29T05:13:35;52.97;36.09;63.14;;
60503;Laerm;51448;51.660;5.824;2022-09-29T05:16:03;54.42;37.53;63.44;;
60503;Laerm;51448;51.660;5.824;2022-09-29T05:18:31;53.54;36.33;61.47;;
60503;Laerm;51448;51.660;5.824;2022-09-29T05:21:06;51.36;36.57;61.88;;
60503;Laerm;51448;51.660;5.824;2022-09-29T05:23:54;54.32;36.82;63.14;;
60503;Laerm;51448;51.660;5.824;2022-09-29T05:26:22;54.83;36.53;68.01;;
60503;Laerm;51448;51.660;5.824;2022-09-29T05:28:49;53.94;37.54;63.09;;
60503;Laerm;51448;51.660;5.824;2022-09-29T05:31:17;53.96;35.73;63.76;;
60503;Laerm;51448;51.660;5.824;2022-09-29T05:33:45;53.40;36.68;61.32;;
60503;Laerm;51448;51.660;5.824;2022-09-29T05:36:12;57.27;38.58;65.81;;
60503;Laerm;51448;51.660;5.824;2022-09-29T05:38:42;56.42;39.19;64.88;;
60503;Laerm;51448;51.660;5.824;2022-09-29T05:41:11;56.11;38.30;65.61;;
60503;Laerm;51448;51.660;5.824;2022-09-29T05:43:39;56.10;37.78;73.66;;
60503;Laerm;51448;51.660;5.824;2022-09-29T05:46:09;56.00;38.73;66.35;;
60503;Laerm;51448;51.660;5.824;2022-09-29T05:48:38;54.07;38.58;61.87;;
60503;Laerm;51448;51.660;5.824;2022-09-29T05:51:12;53.95;37.22;61.88;;
60503;Laerm;51448;51.660;5.824;2022-09-29T05:53:41;55.47;38.86;65.07;;
60503;Laerm;51448;51.660;5.824;2022-09-29T05:56:17;53.97;39.05;64.55;;
60503;Laerm;51448;51.660;5.824;2022-09-29T05:58:45;54.50;37.78;67.33;;
60503;Laerm;51448;51.660;5.824;2022-09-29T06:01:25;55.15;39.32;65.32;;
60503;Laerm;51448;51.660;5.824;2022-09-29T06:03:56;54.43;35.71;62.72;;
60503;Laerm;51448;51.660;5.824;2022-09-29T06:06:26;53.81;37.10;62.25;;
60503;Laerm;51448;51.660;5.824;2022-09-29T06:08:56;54.36;36.16;62.71;;
60503;Laerm;51448;51.660;5.824;2022-09-29T06:11:28;52.70;37.11;62.77;;
60503;Laerm;51448;51.660;5.824;2022-09-29T06:13:57;55.17;36.94;64.81;;
60503;Laerm;51448;51.660;5.824;2022-09-29T06:16:28;53.13;37.16;62.27;;
60503;Laerm;51448;51.660;5.824;2022-09-29T06:18:58;54.37;36.68;67.26;;
60503;Laerm;51448;51.660;5.824;2022-09-29T06:21:28;53.76;37.23;63.77;;
60503;Laerm;51448;51.660;5.824;2022-09-29T06:23:57;52.86;36.01;66.25;;
60503;Laerm;51448;51.660;5.824;2022-09-29T06:26:26;53.76;35.73;65.36;;
60503;Laerm;51448;51.660;5.824;2022-09-29T06:28:56;54.47;36.37;65.26;;
60503;Laerm;51448;51.660;5.824;2022-09-29T06:31:27;53.61;36.91;62.94;;
60503;Laerm;51448;51.660;5.824;2022-09-29T06:34:01;53.70;35.14;64.60;;
60503;Laerm;51448;51.660;5.824;2022-09-29T06:36:43;52.69;35.33;69.10;;
60503;Laerm;51448;51.660;5.824;2022-09-29T06:39:30;50.73;35.56;62.93;;
60503;Laerm;51448;51.660;5.824;2022-09-29T06:41:57;52.72;36.50;62.04;;
60503;Laerm;51448;51.660;5.824;2022-09-29T06:44:26;54.27;37.45;63.82;;
60503;Laerm;51448;51.660;5.824;2022-09-29T06:46:56;52.50;34.97;64.83;;
60503;Laerm;51448;51.660;5.824;2022-09-29T06:49:24;53.17;36.68;61.85;;
60503;Laerm;51448;51.660;5.824;2022-09-29T06:51:52;51.85;35.02;61.45;;
60503;Laerm;51448;51.660;5.824;2022-09-29T06:54:22;52.53;34.25;77.92;;
60503;Laerm;51448;51.660;5.824;2022-09-29T06:56:53;62.80;34.78;89.01;;
60503;Laerm;51448;51.660;5.824;2022-09-29T06:59:21;53.83;34.76;74.44;;
60503;Laerm;51448;51.660;5.824;2022-09-29T07:01:49;52.15;33.92;62.08;;
60503;Laerm;51448;51.660;5.824;2022-09-29T07:04:20;52.38;35.72;65.99;;
60503;Laerm;51448;51.660;5.824;2022-09-29T07:06:49;51.62;34.47;63.61;;
60503;Laerm;51448;51.660;5.824;2022-09-29T07:09:17;52.76;34.74;65.89;;
60503;Laerm;51448;51.660;5.824;2022-09-29T07:11:49;55.14;34.71;74.89;;
60503;Laerm;51448;51.660;5.824;2022-09-29T07:14:20;52.79;33.24;73.43;;
60503;Laerm;51448;51.660;5.824;2022-09-29T07:16:54;49.94;33.40;61.45;;
60503;Laerm;51448;51.660;5.824;2022-09-29T07:19:22;52.30;35.01;74.64;;
60503;Laerm;51448;51.660;5.824;2022-09-29T07:21:49;51.11;33.65;61.85;;
60503;Laerm;51448;51.660;5.824;2022-09-29T07:24:17;50.97;33.99;59.98;;
60503;Laerm;51448;51.660;5.824;2022-09-29T07:26:45;50.59;33.89;61.37;;
60503;Laerm;51448;51.660;5.824;2022-09-29T07:29:12;49.40;33.39;59.44;;
60503;Laerm;51448;51.660;5.824;2022-09-29T07:31:44;48.88;32.95;59.66;;
60503;Laerm;51448;51.660;5.824;2022-09-29T07:34:19;50.96;33.88;60.19;;
60503;Laerm;51448;51.660;5.824;2022-09-29T07:36:48;49.48;33.05;61.35;;
60503;Laerm;51448;51.660;5.824;2022-09-29T07:39:16;49.96;33.01;63.44;;
60503;Laerm;51448;51.660;5.824;2022-09-29T07:41:45;51.38;34.55;61.80;;
60503;Laerm;51448;51.660;5.824;2022-09-29T07:44:13;50.43;33.77;69.07;;
60503;Laerm;51448;51.660;5.824;2022-09-29T07:46:41;52.34;32.99;71.12;;
60503;Laerm;51448;51.660;5.824;2022-09-29T07:49:09;50.83;33.63;62.10;;
60503;Laerm;51448;51.660;5.824;2022-09-29T07:51:36;50.42;32.92;69.16;;
60503;Laerm;51448;51.660;5.824;2022-09-29T07:54:04;48.35;32.56;69.86;;
60503;Laerm;51448;51.660;5.824;2022-09-29T07:56:32;49.97;33.21;63.44;;
60503;Laerm;51448;51.660;5.824;2022-09-29T07:59:00;47.04;32.98;59.71;;
60503;Laerm;51448;51.660;5.824;2022-09-29T08:01:29;47.18;33.94;57.12;;
60503;Laerm;51448;51.660;5.824;2022-09-29T08:03:58;48.35;33.61;58.69;;
60503;Laerm;51448;51.660;5.824;2022-09-29T08:06:25;46.33;32.79;60.33;;
60503;Laerm;51448;51.660;5.824;2022-09-29T08:08:53;50.45;33.62;62.99;;
60503;Laerm;51448;51.660;5.824;2022-09-29T08:11:36;48.97;33.36;60.51;;
60503;Laerm;51448;51.660;5.824;2022-09-29T08:14:04;49.74;32.88;76.74;;
60503;Laerm;51448;51.660;5.824;2022-09-29T08:16:32;48.18;32.18;61.03;;
60503;Laerm;51448;51.660;5.824;2022-09-29T08:19:02;46.64;31.42;66.38;;
60503;Laerm;51448;51.660;5.824;2022-09-29T08:21:31;47.11;32.06;58.81;;
60503;Laerm;51448;51.660;5.824;2022-09-29T08:24:04;49.54;32.04;65.54;;
60503;Laerm;51448;51.660;5.824;2022-09-29T08:26:36;46.13;32.39;57.58;;
60503;Laerm;51448;51.660;5.824;2022-09-29T08:29:13;47.46;33.02;57.23;;
60503;Laerm;51448;51.660;5.824;2022-09-29T08:31:44;48.23;31.52;61.39;;
60503;Laerm;51448;51.660;5.824;2022-09-29T08:34:12;48.32;32.76;65.14;;
60503;Laerm;51448;51.660;5.824;2022-09-29T08:36:40;53.96;33.31;68.43;;
60503;Laerm;51448;51.660;5.824;2022-09-29T08:39:09;54.71;33.22;69.49;;
60503;Laerm;51448;51.660;5.824;2022-09-29T08:42:03;47.42;32.96;65.85;;
60503;Laerm;51448;51.660;5.824;2022-09-29T08:44:38;45.75;32.07;58.27;;
60503;Laerm;51448;51.660;5.824;2022-09-29T08:47:31;49.51;32.06;61.76;;
60503;Laerm;51448;51.660;5.824;2022-09-29T08:50:21;44.55;31.49;61.79;;
60503;Laerm;51448;51.660;5.824;2022-09-29T08:52:57;46.78;32.59;58.45;;
60503;Laerm;51448;51.660;5.824;2022-09-29T08:55:54;45.44;31.56;57.59;;
60503;Laerm;51448;51.660;5.824;2022-09-29T08:58:23;43.98;31.63;59.88;;
60503;Laerm;51448;51.660;5.824;2022-09-29T09:03:56;51.03;31.27;75.09;;
60503;Laerm;51448;51.660;5.824;2022-09-29T09:06:36;51.03;32.60;63.62;;
60503;Laerm;51448;51.660;5.824;2022-09-29T09:09:49;47.68;31.62;66.44;;
60503;Laerm;51448;51.660;5.824;2022-09-29T09:15:40;50.49;32.57;60.56;;
60503;Laerm;51448;51.660;5.824;2022-09-29T09:21:55;49.86;31.93;61.94;;
60503;Laerm;51448;51.660;5.824;2022-09-29T09:24:56;48.82;31.39;65.27;;
60503;Laerm;51448;51.660;5.824;2022-09-29T09:27:41;47.37;32.26;64.86;;
60503;Laerm;51448;51.660;5.824;2022-09-29T09:30:18;46.09;32.84;63.31;;
60503;Laerm;51448;51.660;5.824;2022-09-29T09:32:52;48.69;32.44;67.38;;
60503;Laerm;51448;51.660;5.824;2022-09-29T09:35:48;46.87;32.50;56.50;;
60503;Laerm;51448;51.660;5.824;2022-09-29T09:41:08;47.33;32.74;57.50;;
60503;Laerm;51448;51.660;5.824;2022-09-29T09:43:45;48.06;32.87;66.60;;
60503;Laerm;51448;51.660;5.824;2022-09-29T09:46:23;47.79;32.23;63.63;;
60503;Laerm;51448;51.660;5.824;2022-09-29T09:49:17;47.91;31.18;59.53;;
60503;Laerm;51448;51.660;5.824;2022-09-29T09:54:37;46.99;32.02;60.56;;
60503;Laerm;51448;51.660;5.824;2022-09-29T10:00:16;55.34;33.04;79.25;;
60503;Laerm;51448;51.660;5.824;2022-09-29T10:02:54;50.06;31.67;76.49;;
60503;Laerm;51448;51.660;5.824;2022-09-29T10:05:29;51.39;34.76;70.17;;
60503;Laerm;51448;51.660;5.824;2022-09-29T10:07:58;52.07;31.24;71.88;;
60503;Laerm;51448;51.660;5.824;2022-09-29T10:10:28;46.37;31.62;58.65;;
60503;Laerm;51448;51.660;5.824;2022-09-29T10:13:11;46.69;31.67;65.89;;
60503;Laerm;51448;51.660;5.824;2022-09-29T10:15:56;47.68;31.44;58.92;;
60503;Laerm;51448;51.660;5.824;2022-09-29T10:18:35;50.04;32.25;76.29;;
60503;Laerm;51448;51.660;5.824;2022-09-29T10:21:03;47.26;30.36;63.47;;
60503;Laerm;51448;51.660;5.824;2022-09-29T10:23:52;37.07;30.92;56.90;;
60503;Laerm;51448;51.660;5.824;2022-09-29T10:26:25;46.90;31.15;61.96;;
60503;Laerm;51448;51.660;5.824;2022-09-29T10:29:44;49.85;30.95;65.08;;
60503;Laerm;51448;51.660;5.824;2022-09-29T10:32:02;50.82;30.97;63.49;;
60503;Laerm;51448;51.660;5.824;2022-09-29T10:34:35;48.80;31.86;69.06;;
60503;Laerm;51448;51.660;5.824;2022-09-29T10:37:21;46.07;31.12;60.79;;
60503;Laerm;51448;51.660;5.824;2022-09-29T10:40:02;55.12;32.28;72.34;;
60503;Laerm;51448;51.660;5.824;2022-09-29T10:42:42;50.98;31.00;65.28;;
60503;Laerm;51448;51.660;5.824;2022-09-29T10:50:27;60.24;34.29;90.40;;
60503;Laerm;51448;51.660;5.824;2022-09-29T10:53:18;46.88;31.00;59.15;;
60503;Laerm;51448;51.660;5.824;2022-09-29T10:55:53;48.12;30.51;58.61;;
60503;Laerm;51448;51.660;5.824;2022-09-29T11:01:20;50.67;32.51;60.26;;
60503;Laerm;51448;51.660;5.824;2022-09-29T11:03:56;44.92;30.82;55.44;;
60503;Laerm;51448;51.660;5.824;2022-09-29T11:06:37;48.39;30.62;59.51;;
60503;Laerm;51448;51.660;5.824;2022-09-29T11:17:29;50.28;30.40;64.16;;
60503;Laerm;51448;51.660;5.824;2022-09-29T11:20:00;48.58;30.61;62.92;;
60503;Laerm;51448;51.660;5.824;2022-09-29T11:25:39;48.66;31.13;62.64;;
60503;Laerm;51448;51.660;5.824;2022-09-29T11:31:11;48.82;30.31;58.86;;
60503;Laerm;51448;51.660;5.824;2022-09-29T11:36:37;47.41;31.99;64.42;;
60503;Laerm;51448;51.660;5.824;2022-09-29T11:39:30;45.35;31.03;57.60;;
60503;Laerm;51448;51.660;5.824;2022-09-29T11:42:39;45.67;31.75;59.30;;
60503;Laerm;51448;51.660;5.824;2022-09-29T11:45:11;47.06;30.86;57.87;;
60503;Laerm;51448;51.660;5.824;2022-09-29T11:51:29;48.17;31.59;72.29;;
60503;Laerm;51448;51.660;5.824;2022-09-29T12:00:02;55.37;32.00;80.39;;
60503;Laerm;51448;51.660;5.824;2022-09-29T12:12:06;47.41;34.18;65.56;;
60503;Laerm;51448;51.660;5.824;2022-09-29T12:15:10;47.67;32.62;58.66;;
60503;Laerm;51448;51.660;5.824;2022-09-29T12:17:47;48.88;32.50;66.58;;
60503;Laerm;51448;51.660;5.824;2022-09-29T12:20:28;50.12;32.93;63.49;;
60503;Laerm;51448;51.660;5.824;2022-09-29T12:23:01;46.91;33.46;62.30;;
60503;Laerm;51448;51.660;5.824;2022-09-29T12:25:36;47.55;32.46;71.37;;
60503;Laerm;51448;51.660;5.824;2022-09-29T12:28:17;48.18;31.56;60.66;;
60503;Laerm;51448;51.660;5.824;2022-09-29T12:30:53;46.84;32.78;57.19;;
60503;Laerm;51448;51.660;5.824;2022-09-29T12:33:42;49.14;33.30;68.45;;
60503;Laerm;51448;51.660;5.824;2022-09-29T12:36:35;48.85;33.67;64.94;;
60503;Laerm;51448;51.660;5.824;2022-09-29T12:39:50;52.13;31.19;80.04;;
60503;Laerm;51448;51.660;5.824;2022-09-29T12:48:55;48.22;32.37;68.96;;
60503;Laerm;51448;51.660;5.824;2022-09-29T12:52:00;52.54;32.18;80.27;;
60503;Laerm;51448;51.660;5.824;2022-09-29T12:54:39;51.56;31.92;70.82;;
60503;Laerm;51448;51.660;5.824;2022-09-29T12:57:18;50.40;33.14;72.31;;
60503;Laerm;51448;51.660;5.824;2022-09-29T12:59:57;49.38;31.53;68.68;;
60503;Laerm;51448;51.660;5.824;2022-09-29T13:08:49;48.34;30.84;69.10;;
60503;Laerm;51448;51.660;5.824;2022-09-29T13:11:57;49.93;30.98;72.69;;
60503;Laerm;51448;51.660;5.824;2022-09-29T13:21:12;49.04;31.51;59.88;;
60503;Laerm;51448;51.660;5.824;2022-09-29T13:27:31;50.40;32.66;62.36;;
60503;Laerm;51448;51.660;5.824;2022-09-29T13:30:20;49.21;33.15;65.51;;
60503;Laerm;51448;51.660;5.824;2022-09-29T13:33:00;46.26;31.00;57.30;;
60503;Laerm;51448;51.660;5.824;2022-09-29T13:35:39;46.48;31.24;60.07;;
60503;Laerm;51448;51.660;5.824;2022-09-29T13:38:31;47.78;30.93;58.02;;
60503;Laerm;51448;51.660;5.824;2022-09-29T13:41:15;49.23;32.01;60.76;;
60503;Laerm;51448;51.660;5.824;2022-09-29T13:49:34;50.26;30.94;64.03;;
60503;Laerm;51448;51.660;5.824;2022-09-29T13:52:29;50.16;30.30;65.90;;
60503;Laerm;51448;51.660;5.824;2022-09-29T13:55:47;48.10;31.04;58.01;;
60503;Laerm;51448;51.660;5.824;2022-09-29T13:58:28;48.37;32.91;60.68;;
60503;Laerm;51448;51.660;5.824;2022-09-29T14:01:05;47.88;31.90;61.70;;
60503;Laerm;51448;51.660;5.824;2022-09-29T14:03:39;47.51;31.99;62.78;;
60503;Laerm;51448;51.660;5.824;2022-09-29T14:06:22;47.83;32.68;58.55;;
60503;Laerm;51448;51.660;5.824;2022-09-29T14:09:20;49.28;33.35;66.72;;
60503;Laerm;51448;51.660;5.824;2022-09-29T14:11:55;49.79;31.75;64.32;;
60503;Laerm;51448;51.660;5.824;2022-09-29T14:14:41;48.08;30.67;65.62;;
60503;Laerm;51448;51.660;5.824;2022-09-29T14:17:25;48.64;32.63;59.73;;
60503;Laerm;51448;51.660;5.824;2022-09-29T14:20:18;50.51;32.81;59.64;;
60503;Laerm;51448;51.660;5.824;2022-09-29T14:23:06;48.69;32.19;62.70;;
60503;Laerm;51448;51.660;5.824;2022-09-29T14:28:22;51.00;32.74;72.78;;
60503;Laerm;51448;51.660;5.824;2022-09-29T14:30:54;57.59;32.36;79.25;;
60503;Laerm;51448;51.660;5.824;2022-09-29T14:33:33;47.75;30.97;58.53;;
60503;Laerm;51448;51.660;5.824;2022-09-29T14:36:13;49.11;31.45;65.08;;
60503;Laerm;51448;51.660;5.824;2022-09-29T14:38:45;55.30;33.50;80.32;;
60503;Laerm;51448;51.660;5.824;2022-09-29T14:41:44;52.07;33.57;67.62;;
60503;Laerm;51448;51.660;5.824;2022-09-29T14:44:23;50.27;31.61;63.77;;
60503;Laerm;51448;51.660;5.824;2022-09-29T14:47:30;49.98;30.51;71.00;;
60503;Laerm;51448;51.660;5.824;2022-09-29T14:54:40;50.23;31.42;64.71;;
60503;Laerm;51448;51.660;5.824;2022-09-29T14:57:28;50.33;31.78;67.98;;
60503;Laerm;51448;51.660;5.824;2022-09-29T15:00:15;49.19;32.64;61.48;;
60503;Laerm;51448;51.660;5.824;2022-09-29T15:02:50;51.05;32.43;61.75;;
60503;Laerm;51448;51.660;5.824;2022-09-29T15:05:32;56.09;32.42;85.26;;
60503;Laerm;51448;51.660;5.824;2022-09-29T15:08:02;51.07;31.87;70.96;;
60503;Laerm;51448;51.660;5.824;2022-09-29T15:10:39;53.84;34.23;65.98;;
60503;Laerm;51448;51.660;5.824;2022-09-29T15:13:33;51.97;30.88;67.19;;
60503;Laerm;51448;51.660;5.824;2022-09-29T15:16:20;54.56;31.72;78.76;;
60503;Laerm;51448;51.660;5.824;2022-09-29T15:19:18;51.37;32.38;65.01;;
60503;Laerm;51448;51.660;5.824;2022-09-29T15:22:26;49.85;30.91;60.00;;
60503;Laerm;51448;51.660;5.824;2022-09-29T15:25:35;52.94;32.57;63.00;;
60503;Laerm;51448;51.660;5.824;2022-09-29T15:28:27;51.56;33.41;58.37;;
60503;Laerm;51448;51.660;5.824;2022-09-29T15:31:03;50.94;32.01;61.69;;
60503;Laerm;51448;51.660;5.824;2022-09-29T15:33:38;52.35;33.15;65.00;;
60503;Laerm;51448;51.660;5.824;2022-09-29T15:36:20;51.30;32.24;62.62;;
60503;Laerm;51448;51.660;5.824;2022-09-29T15:39:04;51.97;33.91;63.21;;
60503;Laerm;51448;51.660;5.824;2022-09-29T15:41:34;50.94;32.48;65.97;;
60503;Laerm;51448;51.660;5.824;2022-09-29T15:44:14;49.64;32.94;59.54;;
60503;Laerm;51448;51.660;5.824;2022-09-29T15:46:56;50.64;33.16;62.98;;
60503;Laerm;51448;51.660;5.824;2022-09-29T15:49:25;52.10;34.63;67.53;;
60503;Laerm;51448;51.660;5.824;2022-09-29T15:52:12;49.60;30.46;59.98;;
60503;Laerm;51448;51.660;5.824;2022-09-29T15:54:41;49.82;29.71;63.28;;
60503;Laerm;51448;51.660;5.824;2022-09-29T15:57:42;48.96;30.82;62.36;;
60503;Laerm;51448;51.660;5.824;2022-09-29T16:03:05;50.02;30.01;61.78;;
60503;Laerm;51448;51.660;5.824;2022-09-29T16:06:06;50.10;30.16;64.13;;
60503;Laerm;51448;51.660;5.824;2022-09-29T16:08:42;49.61;30.43;59.56;;
60503;Laerm;51448;51.660;5.824;2022-09-29T16:11:21;49.12;30.31;59.98;;
60503;Laerm;51448;51.660;5.824;2022-09-29T16:13:59;50.95;32.21;60.47;;
60503;Laerm;51448;51.660;5.824;2022-09-29T16:16:34;50.89;31.31;60.27;;
60503;Laerm;51448;51.660;5.824;2022-09-29T16:19:15;48.30;30.56;59.91;;
60503;Laerm;51448;51.660;5.824;2022-09-29T16:21:51;47.30;29.64;58.19;;
60503;Laerm;51448;51.660;5.824;2022-09-29T16:24:20;50.24;29.89;64.54;;
60503;Laerm;51448;51.660;5.824;2022-09-29T16:26:52;59.71;30.03;84.33;;
60503;Laerm;51448;51.660;5.824;2022-09-29T16:29:34;59.90;30.92;85.81;;
60503;Laerm;51448;51.660;5.824;2022-09-29T16:35:40;49.66;29.74;60.46;;
60503;Laerm;51448;51.660;5.824;2022-09-29T16:40:54;47.40;30.30;64.30;;
60503;Laerm;51448;51.660;5.824;2022-09-29T16:43:27;51.68;30.24;66.99;;
60503;Laerm;51448;51.660;5.824;2022-09-29T16:46:01;50.29;32.90;69.58;;
60503;Laerm;51448;51.660;5.824;2022-09-29T16:48:36;49.27;31.63;61.09;;